Time;durP1;ratioP1;P1;durP2;ratioP2;P2;SDS_P1;SDS_P2;PMS_P1;PMS_P2;Temp;Humidity;BMP_temperature;BMP_pressure;BME280_temperature;BME280_humidity;BME280_pressure;Samples;Min_cycle;Max_cycle;Signal;HPM_P1;HPM_P2
2021/06/21 00:05:06;;;;;;;12.75;8.35;;;;;;;25.41;94.06;98533.27;4361732;80;28569;-85
2021/06/21 00:11:07;;;;;;;10.78;8.30;;;;;;;25.48;92.67;98543.70;4411166;78;28465;-84
2021/06/21 00:17:09;;;;;;;10.63;8.35;;;;;;;25.43;97.07;98537.84;4382308;80;28450;-85
2021/06/21 00:23:10;;;;;;;11.95;8.08;;;;;;;25.02;100.00;98532.16;4368998;81;28477;-85
2021/06/21 00:29:12;;;;;;;9.55;7.70;;;;;;;25.14;100.00;98524.52;4314544;80;28451;-84
2021/06/21 00:35:15;;;;;;;11.00;8.05;;;;;;;24.90;100.00;98526.08;4344600;80;28533;-86
2021/06/21 00:41:16;;;;;;;10.55;9.03;;;;;;;24.86;100.00;98512.77;4341351;80;28552;-86
2021/06/21 00:47:18;;;;;;;11.15;8.50;;;;;;;24.44;100.00;98504.02;4371369;80;28428;-87
2021/06/21 00:53:20;;;;;;;13.38;8.15;;;;;;;24.60;100.00;98500.63;4340577;80;28610;-85
2021/06/21 00:59:22;;;;;;;12.93;9.15;;;;;;;24.49;100.00;98490.65;4343494;80;28493;-85
2021/06/21 01:05:28;;;;;;;11.15;8.80;;;;;;;24.82;100.00;98473.92;4361415;78;28426;-86
2021/06/21 01:11:55;;;;;;;11.70;8.50;;;;;;;24.93;100.00;98470.96;4342472;80;28458;-87
2021/06/21 01:18:27;;;;;;;12.13;8.23;;;;;;;24.97;100.00;98467.78;4336918;80;28548;-87
2021/06/21 01:25:10;;;;;;;14.58;9.48;;;;;;;24.89;100.00;98457.68;4307006;80;28473;-88
2021/06/21 01:31:22;;;;;;;13.58;9.03;;;;;;;24.46;100.00;98446.79;4282992;80;28480;-84
2021/06/21 01:37:24;;;;;;;10.82;8.18;;;;;;;24.53;100.00;98428.38;4371463;80;28459;-85
2021/06/21 01:43:33;;;;;;;11.45;8.13;;;;;;;24.86;100.00;98430.87;4342629;79;28533;-84
2021/06/21 01:49:39;;;;;;;10.10;8.68;;;;;;;24.90;100.00;98424.92;4373574;79;28452;-88
2021/06/21 01:55:48;;;;;;;12.58;8.03;;;;;;;24.95;100.00;98430.77;4391067;80;28495;-86
2021/06/21 02:01:49;;;;;;;10.65;8.53;;;;;;;24.65;100.00;98441.35;4342168;80;28477;-87
2021/06/21 02:07:51;;;;;;;12.75;8.38;;;;;;;24.55;100.00;98441.78;4369104;80;28457;-88
2021/06/21 02:13:54;;;;;;;12.90;9.10;;;;;;;24.45;100.00;98430.08;4393848;80;28430;-87
2021/06/21 02:19:57;;;;;;;10.50;8.98;;;;;;;24.61;100.00;98430.23;4364735;80;28437;-88
2021/06/21 02:25:59;;;;;;;10.23;8.30;;;;;;;24.58;100.00;98417.73;4354305;80;28472;-87
2021/06/21 02:32:00;;;;;;;11.05;8.30;;;;;;;24.73;100.00;98408.84;4343736;79;28533;-88
2021/06/21 02:38:02;;;;;;;13.10;8.33;;;;;;;24.44;100.00;98403.75;4380523;80;28486;-86
2021/06/21 02:44:05;;;;;;;15.58;9.25;;;;;;;24.35;100.00;98405.78;4373140;80;28444;-87
2021/06/21 02:50:08;;;;;;;11.53;9.60;;;;;;;24.40;100.00;98400.06;4364750;80;28586;-87
2021/06/21 02:56:26;;;;;;;9.75;8.43;;;;;;;23.99;100.00;98399.79;4348677;80;28464;-88
2021/06/21 03:02:29;;;;;;;11.10;8.83;;;;;;;24.19;100.00;98402.88;4345510;79;28452;-88
2021/06/21 03:08:31;;;;;;;12.00;8.18;;;;;;;24.50;100.00;98413.36;4324513;79;28541;-88
2021/06/21 03:14:32;;;;;;;15.00;8.75;;;;;;;24.70;100.00;98412.84;4396544;80;28501;-87
2021/06/21 03:20:34;;;;;;;10.98;8.30;;;;;;;24.93;100.00;98420.09;4396494;80;28524;-87
2021/06/21 03:26:35;;;;;;;13.20;8.33;;;;;;;25.30;100.00;98421.48;4396082;80;28475;-87
2021/06/21 03:32:45;;;;;;;11.78;8.85;;;;;;;25.13;100.00;98421.16;4396786;80;28524;-86
2021/06/21 03:38:46;;;;;;;11.70;8.60;;;;;;;25.03;100.00;98422.98;4396694;80;28485;-87
2021/06/21 03:44:49;;;;;;;11.35;8.83;;;;;;;25.46;100.00;98421.58;4395961;80;28477;-87
2021/06/21 03:50:51;;;;;;;9.65;8.33;;;;;;;25.91;99.13;98421.73;4381596;79;28452;-87
2021/06/21 03:56:53;;;;;;;14.30;8.13;;;;;;;25.90;98.78;98416.00;4399195;79;28457;-88
2021/06/21 04:02:58;;;;;;;11.70;8.18;;;;;;;25.89;97.88;98422.09;4375534;79;28509;-85
2021/06/21 04:09:00;;;;;;;11.48;9.20;;;;;;;25.94;96.02;98422.43;4391198;80;28522;-84
2021/06/21 04:15:02;;;;;;;11.15;9.00;;;;;;;25.73;97.58;98429.47;4410772;80;28552;-84
2021/06/21 04:21:03;;;;;;;9.58;8.25;;;;;;;25.80;95.79;98437.95;4399750;80;28540;-84
2021/06/21 04:27:06;;;;;;;12.15;9.50;;;;;;;26.02;95.70;98442.70;4406573;80;28435;-85
2021/06/21 04:33:07;;;;;;;12.25;9.03;;;;;;;25.55;100.00;98439.36;4338645;80;28504;-85
2021/06/21 04:39:08;;;;;;;10.20;8.05;;;;;;;26.03;96.75;98440.98;4327039;80;28580;-87
2021/06/21 04:45:11;;;;;;;11.63;8.40;;;;;;;26.22;93.93;98434.62;4331228;80;28454;-87
2021/06/21 04:51:12;;;;;;;13.05;9.03;;;;;;;26.41;90.58;98434.77;4366307;79;28457;-87
2021/06/21 04:57:14;;;;;;;11.12;8.10;;;;;;;26.11;93.69;98437.04;4340541;79;28563;-86
2021/06/21 05:03:15;;;;;;;14.60;8.20;;;;;;;26.34;92.21;98442.84;4357344;79;28497;-89
2021/06/21 05:09:16;;;;;;;14.87;8.33;;;;;;;26.36;93.10;98448.79;4375654;79;28464;-86
2021/06/21 05:15:18;;;;;;;8.13;6.97;;;;;;;26.28;93.95;98452.49;4385372;80;28473;-90
2021/06/21 05:21:20;;;;;;;10.45;8.20;;;;;;;26.94;88.06;98452.27;4396030;80;28552;-90
2021/06/21 05:27:22;;;;;;;12.05;8.00;;;;;;;26.61;88.37;98452.81;4396869;80;28492;-92
2021/06/21 05:33:24;;;;;;;13.93;8.40;;;;;;;26.88;86.75;98452.33;4394921;80;28499;-87
2021/06/21 05:39:25;;;;;;;11.57;8.35;;;;;;;26.74;86.51;98456.28;4363092;81;28440;-88
2021/06/21 05:45:26;;;;;;;11.85;8.40;;;;;;;26.98;85.25;98460.08;4413099;80;28448;-88
2021/06/21 05:51:30;;;;;;;16.20;8.30;;;;;;;26.43;89.85;98466.91;4415525;80;28493;-88
2021/06/21 05:57:31;;;;;;;14.28;9.28;;;;;;;26.65;89.37;98448.75;4395261;81;28531;-89
2021/06/21 06:03:32;;;;;;;11.00;8.43;;;;;;;26.55;90.69;98443.19;4354833;81;28454;-87
2021/06/21 06:09:34;;;;;;;15.90;7.10;;;;;;;26.41;93.92;98440.28;4356273;81;28483;-88
2021/06/21 06:15:35;;;;;;;13.18;7.70;;;;;;;27.09;87.00;98430.80;4360220;80;28463;-90
2021/06/21 06:21:41;;;;;;;13.10;7.85;;;;;;;27.16;85.78;98441.77;4396397;80;28469;-88
2021/06/21 06:27:43;;;;;;;11.63;7.62;;;;;;;27.15;86.63;98440.98;4349348;80;28444;-88
2021/06/21 06:33:44;;;;;;;11.93;7.62;;;;;;;26.96;86.27;98438.36;4356231;81;28486;-89
2021/06/21 06:39:45;;;;;;;15.28;7.70;;;;;;;27.17;85.86;98439.23;4361908;79;28540;-89
2021/06/21 06:45:47;;;;;;;13.43;8.38;;;;;;;27.63;81.50;98433.20;4353523;79;28500;-88
2021/06/21 06:51:52;;;;;;;14.68;7.70;;;;;;;27.45;81.63;98434.16;4371125;79;28474;-88
2021/06/21 06:57:52;;;;;;;15.05;7.03;;;;;;;27.76;79.24;98419.51;4346840;79;28483;-88
2021/06/21 07:03:53;;;;;;;13.43;7.22;;;;;;;27.77;79.20;98412.82;4357326;79;28467;-91
2021/06/21 07:09:54;;;;;;;16.35;7.05;;;;;;;27.91;80.10;98417.03;4370790;80;28450;-90
2021/06/21 07:15:56;;;;;;;9.40;6.58;;;;;;;27.68;80.08;98419.12;4332529;81;28468;-89
2021/06/21 07:21:57;;;;;;;12.82;6.08;;;;;;;28.32;76.58;98412.52;4363050;80;28499;-88
2021/06/21 07:27:59;;;;;;;12.00;6.35;;;;;;;28.33;74.98;98413.54;4368344;80;28459;-89
2021/06/21 07:34:01;;;;;;;11.10;6.28;;;;;;;28.55;73.03;98414.53;4427867;80;28527;-89
2021/06/21 07:40:05;;;;;;;12.55;6.33;;;;;;;28.29;74.70;98410.49;4373001;80;28551;-88
2021/06/21 07:46:06;;;;;;;12.82;5.87;;;;;;;28.31;74.30;98395.15;4359893;79;28573;-90
2021/06/21 07:52:08;;;;;;;11.60;6.20;;;;;;;28.34;74.96;98395.01;4352098;79;28502;-90
2021/06/21 07:58:10;;;;;;;17.73;6.03;;;;;;;28.30;72.27;98389.98;4440539;79;28492;-90
2021/06/21 08:04:12;;;;;;;8.63;4.47;;;;;;;28.50;72.51;98391.53;4376715;80;28491;-91
2021/06/21 08:10:15;;;;;;;12.45;5.35;;;;;;;29.29;65.58;98399.55;4372801;80;28442;-91
2021/06/21 08:16:16;;;;;;;12.35;5.30;;;;;;;29.11;65.60;98405.39;4409656;79;28475;-87
2021/06/21 08:22:22;;;;;;;10.32;5.45;;;;;;;29.39;63.51;98402.84;4395043;79;28470;-82
2021/06/21 08:28:23;;;;;;;16.93;5.92;;;;;;;29.21;64.98;98408.91;4435617;78;28441;-85
2021/06/21 08:34:25;;;;;;;10.28;5.55;;;;;;;29.44;66.06;98410.27;4338790;80;28481;-83
2021/06/21 08:40:27;;;;;;;10.63;5.40;;;;;;;29.31;62.52;98408.84;4367559;80;28507;-85
2021/06/21 08:46:29;;;;;;;11.22;5.15;;;;;;;29.51;62.40;98401.27;4385642;80;28498;-86
2021/06/21 08:52:31;;;;;;;13.00;4.55;;;;;;;29.59;60.90;98411.84;4374538;80;28539;-85
2021/06/21 08:58:32;;;;;;;10.63;5.00;;;;;;;30.07;59.26;98396.64;4380322;80;28464;-84
2021/06/21 09:04:38;;;;;;;10.20;5.33;;;;;;;29.76;60.14;98396.62;4340173;80;28485;-86
2021/06/21 09:10:41;;;;;;;;;;;;;;;29.78;59.16;98391.50;4346299;80;28461;-83
2021/06/21 09:16:43;;;;;;;11.78;3.92;;;;;;;29.61;54.96;98388.72;4353128;80;20203;-84
2021/06/21 09:22:54;;;;;;;8.70;4.10;;;;;;;29.87;52.58;98387.86;4437223;78;28453;-86
2021/06/21 09:28:57;;;;;;;16.00;4.45;;;;;;;29.88;51.71;98381.74;4361543;80;28438;-88
2021/06/21 09:34:59;;;;;;;13.78;4.55;;;;;;;29.86;52.97;98386.27;4360564;81;28460;-87
2021/06/21 09:41:00;;;;;;;9.75;4.03;;;;;;;30.41;51.66;98383.54;4348405;80;28516;-87
2021/06/21 09:47:41;;;;;;;7.65;3.20;;;;;;;30.61;49.81;98374.97;4325876;80;28469;-87
2021/06/21 09:54:07;;;;;;;8.83;3.00;;;;;;;30.77;45.15;98380.29;4315408;80;28430;-87
2021/06/21 10:00:14;;;;;;;8.08;3.22;;;;;;;31.09;43.99;98369.23;4324756;80;28902;-87
2021/06/21 10:06:15;;;;;;;8.85;2.98;;;;;;;31.25;42.85;98376.72;4341515;79;28504;-87
2021/06/21 10:12:21;;;;;;;11.78;3.30;;;;;;;31.28;41.57;98366.22;4340246;80;28467;-86
2021/06/21 10:18:22;;;;;;;11.93;2.70;;;;;;;30.99;40.03;98371.55;4331535;80;28465;-86
2021/06/21 10:24:30;;;;;;;8.98;3.10;;;;;;;31.01;39.57;98364.23;4365983;78;28534;-87
2021/06/21 10:30:28;;;;;;;7.37;2.58;;;;;;;31.26;40.88;98356.09;4348128;80;28471;-86
2021/06/21 10:36:49;;;;;;;12.00;2.72;;;;;;;31.29;41.05;98348.95;4351646;80;28538;-85
2021/06/21 10:42:50;;;;;;;8.40;3.30;;;;;;;31.39;41.94;98341.88;4345252;80;28466;-84
2021/06/21 10:49:06;;;;;;;8.85;2.75;;;;;;;31.61;41.71;98341.39;4333755;80;28529;-87
2021/06/21 10:55:30;;;;;;;10.48;2.90;;;;;;;31.56;40.91;98345.34;4348820;80;28476;-89
2021/06/21 11:01:36;;;;;;;10.97;2.73;;;;;;;31.93;42.10;98330.20;4339209;80;28560;-86
2021/06/21 11:07:38;;;;;;;7.03;2.90;;;;;;;31.82;41.15;98330.96;4326111;78;28517;-86
2021/06/21 11:13:41;;;;;;;6.58;2.83;;;;;;;32.05;41.02;98318.70;4376051;79;28465;-84
2021/06/21 11:19:42;;;;;;;10.28;2.65;;;;;;;32.07;39.98;98320.48;4381148;79;28523;-85
2021/06/21 11:25:49;;;;;;;7.95;2.58;;;;;;;32.07;41.23;98316.32;4380678;79;28453;-85
2021/06/21 11:31:59;;;;;;;7.80;2.45;;;;;;;32.31;41.93;98315.95;4359633;81;28474;-84
2021/06/21 11:38:21;;;;;;;9.80;2.83;;;;;;;32.32;39.54;98318.36;4383644;78;28493;-83
2021/06/21 11:44:42;;;;;;;8.33;2.87;;;;;;;31.97;39.81;98297.05;4283441;78;28517;-85
2021/06/21 11:50:45;;;;;;;10.78;2.77;;;;;;;31.80;39.62;98288.89;4368331;79;28511;-84
2021/06/21 11:56:56;;;;;;;6.58;2.20;;;;;;;31.73;39.26;98278.33;4329017;80;28468;-85
2021/06/21 12:03:05;;;;;;;10.30;3.05;;;;;;;31.75;38.79;98287.06;4350913;80;28624;-85
2021/06/21 12:09:06;;;;;;;7.08;2.60;;;;;;;31.89;39.06;98285.72;4339463;81;28515;-84
2021/06/21 12:15:12;;;;;;;7.90;2.62;;;;;;;32.12;39.38;98272.86;4346239;80;28535;-83
2021/06/21 12:21:13;;;;;;;9.28;2.35;;;;;;;32.25;39.97;98271.06;4391486;79;28471;-84
2021/06/21 12:27:15;;;;;;;6.53;2.25;;;;;;;32.21;38.41;98261.33;4345666;80;28424;-84
2021/06/21 12:33:30;;;;;;;6.92;2.25;;;;;;;32.74;38.50;98258.94;4351500;80;28460;-84
2021/06/21 12:39:36;;;;;;;9.40;2.23;;;;;;;32.73;37.56;98263.52;4394947;80;28542;-84
2021/06/21 12:45:37;;;;;;;;;;;;;;;33.00;38.23;98252.75;4375388;80;28462;-83
2021/06/21 12:51:40;;;;;;;8.63;2.30;;;;;;;32.23;38.26;98257.58;4375718;80;20230;-84
2021/06/21 12:57:59;;;;;;;7.20;2.50;;;;;;;32.63;38.49;98238.69;4349757;79;28503;-83
2021/06/21 13:04:17;;;;;;;8.30;2.83;;;;;;;32.75;38.81;98241.07;4353656;80;28527;-83
2021/06/21 13:10:22;;;;;;;7.97;2.70;;;;;;;32.61;38.72;98241.08;4353118;80;28542;-83
2021/06/21 13:16:29;;;;;;;5.53;2.42;;;;;;;32.48;39.78;98240.11;4336261;81;28452;-80
2021/06/21 13:22:52;;;;;;;6.92;2.58;;;;;;;32.73;39.51;98240.65;4394614;79;28527;-84
2021/06/21 13:28:53;;;;;;;7.55;2.45;;;;;;;32.70;39.16;98238.68;4332939;79;28455;-84
2021/06/21 13:34:58;;;;;;;7.08;2.35;;;;;;;32.99;39.50;98236.44;4369027;79;28539;-82
2021/06/21 13:41:04;;;;;;;9.30;3.10;;;;;;;32.91;37.68;98221.73;4380248;79;28516;-84
2021/06/21 13:47:05;;;;;;;8.15;3.02;;;;;;;32.93;39.26;98218.77;4381326;79;28480;-84
2021/06/21 13:53:28;;;;;;;5.83;2.50;;;;;;;32.80;39.46;98214.20;4372871;79;28549;-84
2021/06/21 13:59:44;;;;;;;8.13;2.50;;;;;;;33.20;38.05;98202.16;4380619;80;28539;-85
2021/06/21 14:05:46;;;;;;;6.75;2.30;;;;;;;33.42;38.53;98220.93;4369496;80;28563;-83
2021/06/21 14:11:47;;;;;;;8.03;2.62;;;;;;;33.31;37.97;98207.08;4334777;80;28500;-83
2021/06/21 14:17:49;;;;;;;8.68;2.83;;;;;;;33.25;38.73;98211.47;4333914;80;28457;-82
2021/06/21 14:23:50;;;;;;;7.05;2.70;;;;;;;33.56;36.70;98217.92;4298850;80;28505;-81
2021/06/21 14:29:52;;;;;;;8.05;2.50;;;;;;;33.57;36.94;98218.89;4355186;80;28487;-83
2021/06/21 14:35:54;;;;;;;6.67;2.70;;;;;;;33.59;35.61;98209.55;4350194;80;28456;-85
2021/06/21 14:41:56;;;;;;;6.70;2.30;;;;;;;33.87;36.49;98206.34;4347811;80;28431;-85
2021/06/21 14:47:57;;;;;;;7.00;2.72;;;;;;;33.69;36.64;98205.68;4358711;80;28869;-85
2021/06/21 14:53:59;;;;;;;8.53;2.77;;;;;;;33.52;35.66;98216.55;4363890;80;28455;-86
2021/06/21 15:00:01;;;;;;;6.45;2.60;;;;;;;33.62;36.30;98217.08;4362136;80;28509;-86
2021/06/21 15:06:13;;;;;;;5.80;2.35;;;;;;;33.88;36.56;98214.90;4371020;81;28480;-85
2021/06/21 15:12:14;;;;;;;13.15;2.80;;;;;;;33.92;36.99;98216.27;4347981;80;28450;-85
2021/06/21 15:18:16;;;;;;;7.17;2.83;;;;;;;34.08;37.34;98214.38;4356492;80;28426;-85
2021/06/21 15:24:17;;;;;;;7.95;2.55;;;;;;;33.93;37.20;98209.49;4336148;80;28483;-85
2021/06/21 15:30:22;;;;;;;5.90;2.60;;;;;;;34.01;37.58;98208.27;4354868;80;28491;-85
2021/06/21 15:36:23;;;;;;;4.53;2.63;;;;;;;34.08;38.24;98215.78;4356645;81;28458;-87
2021/06/21 15:42:25;;;;;;;6.42;2.50;;;;;;;34.05;37.99;98224.97;4332884;80;28433;-85
2021/06/21 15:48:26;;;;;;;4.80;2.65;;;;;;;34.00;37.60;98213.66;4338915;80;28466;-86
2021/06/21 15:54:27;;;;;;;6.40;2.70;;;;;;;34.09;37.48;98215.97;4331118;80;28456;-85
2021/06/21 16:00:39;;;;;;;4.15;2.40;;;;;;;34.10;37.67;98223.74;4348513;80;28547;-86
2021/06/21 16:06:40;;;;;;;5.62;2.45;;;;;;;34.28;38.80;98222.19;4380051;78;28508;-85
2021/06/21 16:12:41;;;;;;;5.62;2.50;;;;;;;34.29;38.19;98220.98;4415703;79;28885;-86
2021/06/21 16:18:43;;;;;;;7.20;2.70;;;;;;;34.37;37.80;98216.92;4405806;79;28487;-82
2021/06/21 16:24:44;;;;;;;5.35;2.20;;;;;;;34.38;37.72;98229.67;4400055;79;28449;-84
2021/06/21 16:30:45;;;;;;;7.58;2.33;;;;;;;34.52;38.28;98223.75;4375618;80;28517;-84
2021/06/21 16:36:47;;;;;;;7.35;2.50;;;;;;;34.47;38.52;98218.82;4350702;79;28543;-84
2021/06/21 16:42:49;;;;;;;7.50;2.85;;;;;;;34.38;38.14;98225.48;4380815;80;28533;-83
2021/06/21 16:48:50;;;;;;;4.30;2.60;;;;;;;34.17;38.37;98220.28;4316945;80;28459;-83
2021/06/21 16:54:54;;;;;;;7.33;3.05;;;;;;;33.67;39.45;98247.91;4329243;80;28555;-83
2021/06/21 17:00:55;;;;;;;5.92;3.12;;;;;;;33.67;39.45;98247.91;4328227;80;28467;-83
2021/06/21 17:06:59;;;;;;;5.97;2.85;;;;;;;33.85;39.93;98243.60;4323682;80;28444;-83
2021/06/21 17:13:00;;;;;;;7.03;2.75;;;;;;;33.47;41.29;98242.84;4357078;80;28519;-84
2021/06/21 17:19:02;;;;;;;6.10;3.20;;;;;;;33.64;41.41;98243.93;4340555;80;28527;-84
2021/06/21 17:25:05;;;;;;;12.13;3.10;;;;;;;33.53;41.85;98244.59;4343703;80;28475;-83
2021/06/21 17:31:07;;;;;;;8.98;2.95;;;;;;;33.88;41.65;98246.18;4346325;80;28489;-84
2021/06/21 17:37:10;;;;;;;9.90;3.37;;;;;;;33.48;42.62;98259.74;4360861;80;28469;-84
2021/06/21 17:43:12;;;;;;;4.10;2.80;;;;;;;32.67;44.66;98274.27;4362376;80;28500;-84
2021/06/21 17:49:15;;;;;;;8.43;3.37;;;;;;;32.61;45.22;98264.14;4369166;80;28487;-84
2021/06/21 17:55:18;;;;;;;6.35;3.70;;;;;;;32.41;45.94;98272.09;4371071;80;28485;-84
2021/06/21 18:01:21;;;;;;;6.72;3.72;;;;;;;32.04;47.39;98268.47;4341282;80;28481;-83
2021/06/21 18:07:22;;;;;;;8.45;3.60;;;;;;;31.90;48.15;98267.08;4403215;80;28462;-83
2021/06/21 18:13:24;;;;;;;9.20;3.40;;;;;;;31.95;48.34;98267.48;4369482;80;28456;-83
2021/06/21 18:19:25;;;;;;;4.03;3.55;;;;;;;31.74;49.10;98270.97;4396986;78;28437;-82
2021/06/21 18:25:29;;;;;;;9.73;3.20;;;;;;;31.44;50.24;98272.06;4434689;78;28446;-83
2021/06/21 18:31:30;;;;;;;10.43;3.52;;;;;;;31.55;49.79;98272.11;4441028;78;28481;-81
2021/06/21 18:37:33;;;;;;;10.03;4.10;;;;;;;31.12;51.60;98265.75;4446971;78;28463;-81
2021/06/21 18:43:34;;;;;;;7.80;3.40;;;;;;;31.18;51.89;98273.12;4410614;78;28491;-83
2021/06/21 18:49:36;;;;;;;12.63;4.67;;;;;;;30.85;52.80;98273.73;4437655;79;28503;-82
2021/06/21 18:55:37;;;;;;;12.45;4.10;;;;;;;30.62;54.19;98273.98;4434478;80;28449;-82
2021/06/21 19:01:39;;;;;;;9.83;4.22;;;;;;;30.60;54.70;98287.41;4369105;80;28532;-81
2021/06/21 19:07:42;;;;;;;8.43;3.85;;;;;;;30.65;54.50;98291.83;4348113;80;28513;-81
2021/06/21 19:13:43;;;;;;;13.22;4.03;;;;;;;30.76;53.59;98296.86;4424151;79;28473;-82
2021/06/21 19:19:44;;;;;;;9.80;4.50;;;;;;;30.80;54.41;98288.56;4427704;78;28558;-83
2021/06/21 19:25:46;;;;;;;9.53;4.50;;;;;;;30.53;55.45;98286.77;4436542;79;28500;-82
2021/06/21 19:31:49;;;;;;;14.87;5.12;;;;;;;30.35;56.50;98288.59;4427696;78;28499;-84
2021/06/21 19:37:50;;;;;;;14.63;4.92;;;;;;;30.08;58.34;98288.77;4397294;78;28511;-84
2021/06/21 19:43:52;;;;;;;15.65;4.78;;;;;;;29.88;60.29;98295.86;4414186;78;28872;-84
2021/06/21 19:49:53;;;;;;;11.05;4.92;;;;;;;29.57;62.69;98294.52;4401885;78;28546;-84
2021/06/21 19:55:57;;;;;;;14.28;4.83;;;;;;;29.76;61.77;98281.67;4434000;78;28500;-85
2021/06/21 20:02:02;;;;;;;;;;;;;;;29.45;64.14;98294.20;4437851;78;28522;-83
2021/06/21 20:08:04;;;;;;;11.10;4.60;;;;;;;29.35;65.12;98285.92;4277802;80;20489;-85
2021/06/21 20:14:05;;;;;;;9.88;3.98;;;;;;;29.70;62.55;98292.91;4439024;78;28493;-84
2021/06/21 20:20:10;;;;;;;13.58;4.87;;;;;;;29.52;63.41;98282.41;4425381;78;28494;-82
2021/06/21 20:26:11;;;;;;;9.70;4.30;;;;;;;29.03;65.80;98279.38;4349272;80;28496;-83
2021/06/21 20:32:13;;;;;;;12.05;5.05;;;;;;;28.88;67.98;98277.60;4363370;79;28472;-83
2021/06/21 20:38:18;;;;;;;11.93;4.80;;;;;;;29.02;66.63;98277.02;4332511;81;28535;-85
2021/06/21 20:44:22;;;;;;;14.40;4.70;;;;;;;28.72;69.11;98279.12;4366557;80;28433;-84
2021/06/21 20:50:27;;;;;;;13.15;4.17;;;;;;;28.59;69.39;98281.28;4340150;80;28470;-86
2021/06/21 20:56:28;;;;;;;12.27;4.50;;;;;;;28.52;70.30;98279.20;4334649;80;28456;-87
2021/06/21 21:02:30;;;;;;;14.50;4.50;;;;;;;28.33;73.03;98291.16;4371884;80;28468;-90
2021/06/21 21:08:31;;;;;;;12.88;4.40;;;;;;;28.39;72.55;98293.23;4328067;80;28526;-88
2021/06/21 21:14:32;;;;;;;11.38;4.90;;;;;;;28.54;70.65;98298.98;4365319;80;28435;-85
2021/06/21 21:20:34;;;;;;;13.08;4.58;;;;;;;28.50;70.91;98298.14;4370069;80;28531;-86
2021/06/21 21:26:36;;;;;;;13.93;5.15;;;;;;;28.25;75.63;98291.59;4429011;78;28524;-87
2021/06/21 21:32:37;;;;;;;7.55;4.60;;;;;;;28.24;74.84;98292.19;4335301;80;28481;-87
2021/06/21 21:38:40;;;;;;;10.40;4.90;;;;;;;28.26;74.52;98308.38;4364140;80;28466;-85
2021/06/21 21:44:43;;;;;;;10.58;4.42;;;;;;;27.94;79.84;98303.86;4357375;80;28487;-85
2021/06/21 21:50:44;;;;;;;12.45;4.90;;;;;;;27.94;76.88;98298.34;4347326;80;28541;-84
2021/06/21 21:56:46;;;;;;;12.73;5.00;;;;;;;27.84;79.36;98290.05;4339932;80;28495;-85
2021/06/21 22:02:49;;;;;;;13.45;6.55;;;;;;;27.87;77.79;98287.75;4351460;80;28565;-84
2021/06/21 22:08:50;;;;;;;12.07;6.42;;;;;;;27.73;78.14;98278.61;4320844;80;28521;-84
2021/06/21 22:14:53;;;;;;;11.88;6.92;;;;;;;27.57;81.80;98286.97;4327816;81;28544;-83
2021/06/21 22:20:54;;;;;;;11.70;6.15;;;;;;;27.40;82.29;98286.20;4347017;81;28486;-85
2021/06/21 22:26:57;;;;;;;11.38;6.15;;;;;;;27.30;80.74;98290.36;4318857;81;28495;-84
2021/06/21 22:32:59;;;;;;;12.15;6.72;;;;;;;27.25;78.80;98290.62;4329406;80;28452;-86
2021/06/21 22:39:00;;;;;;;11.33;6.78;;;;;;;26.80;83.64;98284.48;4341524;80;28521;-86
2021/06/21 22:45:04;;;;;;;10.85;7.05;;;;;;;26.79;84.93;98288.41;4331929;80;28513;-87
2021/06/21 22:51:05;;;;;;;10.82;6.75;;;;;;;26.68;88.00;98283.44;4320255;80;28464;-87
2021/06/21 22:57:08;;;;;;;11.53;7.45;;;;;;;26.75;84.92;98304.86;4318516;80;28444;-85
2021/06/21 23:03:11;;;;;;;12.20;7.45;;;;;;;26.51;90.00;98302.53;4343397;80;28538;-85
2021/06/21 23:09:13;;;;;;;13.05;6.95;;;;;;;26.46;88.62;98302.81;4392392;79;28581;-83
2021/06/21 23:15:16;;;;;;;11.22;6.92;;;;;;;26.29;92.94;98306.70;4424382;78;28488;-84
2021/06/21 23:21:18;;;;;;;11.53;7.40;;;;;;;26.13;94.27;98302.52;4413491;78;28466;-84
2021/06/21 23:27:19;;;;;;;10.70;7.05;;;;;;;25.97;93.63;98293.67;4419507;78;28495;-84
2021/06/21 23:33:21;;;;;;;12.30;7.28;;;;;;;25.84;93.91;98292.93;4414636;78;28449;-86
2021/06/21 23:39:23;;;;;;;12.93;8.40;;;;;;;26.12;86.02;98280.27;4447703;78;28484;-86
2021/06/21 23:45:24;;;;;;;13.32;7.85;;;;;;;25.81;91.04;98273.00;4441522;78;28489;-85
2021/06/21 23:51:27;;;;;;;10.23;7.45;;;;;;;25.82;92.97;98282.85;4414177;78;28488;-85
2021/06/21 23:57:28;;;;;;;12.25;7.62;;;;;;;26.07;90.29;98280.55;4372915;79;28456;-86
